createdAt,value
2018-06-22T00:00:04.252Z,10.47
2018-06-22T00:01:31.657Z,10.45
2018-06-22T00:02:59.133Z,10.45
2018-06-22T00:04:27.625Z,10.45
2018-06-22T00:05:53.933Z,10.44
2018-06-22T00:07:21.330Z,10.45
2018-06-22T00:08:49.792Z,10.46
2018-06-22T00:10:17.001Z,10.49
2018-06-22T00:11:43.081Z,10.50
2018-06-22T00:13:11.494Z,10.49
2018-06-22T00:14:38.614Z,10.51
2018-06-22T00:16:05.676Z,10.51
2018-06-22T00:17:33.074Z,10.49
2018-06-22T00:19:00.463Z,10.49
2018-06-22T00:20:27.887Z,10.46
2018-06-22T00:21:55.234Z,10.46
2018-06-22T00:23:22.642Z,10.44
2018-06-22T00:24:50.076Z,10.43
2018-06-22T00:26:16.461Z,10.44
2018-06-22T00:27:43.783Z,10.45
2018-06-22T00:29:11.299Z,10.46
2018-06-22T00:30:38.777Z,10.45
2018-06-22T00:32:07.360Z,10.49
2018-06-22T00:33:34.706Z,10.51
2018-06-22T00:35:00.965Z,10.52
2018-06-22T00:36:29.466Z,10.52
2018-06-22T00:37:56.755Z,10.53
2018-06-22T00:39:23.247Z,10.53
2018-06-22T00:40:50.643Z,10.50
2018-06-22T00:42:17.898Z,10.49
2018-06-22T00:43:46.038Z,10.47
2018-06-22T00:45:12.685Z,10.45
2018-06-22T00:46:40.045Z,10.47
2018-06-22T00:48:08.231Z,10.49
2018-06-22T00:49:35.571Z,10.51
2018-06-22T00:51:03.001Z,10.49
2018-06-22T00:52:29.353Z,10.47
2018-06-22T00:53:56.890Z,10.44
2018-06-22T00:55:24.294Z,10.42
2018-06-22T00:56:52.597Z,10.42
2018-06-22T00:58:19.962Z,10.43
2018-06-22T00:59:46.375Z,10.44
2018-06-22T01:01:13.740Z,10.42
2018-06-22T01:02:41.062Z,10.40
2018-06-22T01:04:09.336Z,10.38
2018-06-22T01:05:35.693Z,10.37
2018-06-22T01:07:04.157Z,10.37
2018-06-22T01:08:30.385Z,10.38
2018-06-22T01:09:58.784Z,10.40
2018-06-22T01:11:25.074Z,10.40
2018-06-22T01:12:53.607Z,10.37
2018-06-22T01:14:19.832Z,10.36
2018-06-22T01:15:48.268Z,10.37
2018-06-22T01:17:15.477Z,10.37
2018-06-22T01:18:42.821Z,10.37
2018-06-22T01:20:09.113Z,10.37
2018-06-22T01:21:36.261Z,10.39
2018-06-22T01:23:03.581Z,10.42
2018-06-22T01:24:31.039Z,10.44
2018-06-22T01:25:58.236Z,10.44
2018-06-22T01:27:26.621Z,10.42
2018-06-22T01:28:52.843Z,10.44
2018-06-22T01:30:21.083Z,10.45
2018-06-22T01:31:47.342Z,10.44
2018-06-22T01:33:14.600Z,10.43
2018-06-22T01:34:45.243Z,10.43
2018-06-22T01:36:09.450Z,10.38
2018-06-22T01:37:36.847Z,10.36
2018-06-22T01:39:04.051Z,10.36
2018-06-22T01:40:31.402Z,10.37
2018-06-22T01:41:59.711Z,10.37
2018-06-22T01:43:27.084Z,10.37
2018-06-22T01:44:54.487Z,10.37
2018-06-22T01:46:21.752Z,10.37
2018-06-22T01:47:48.160Z,10.37
2018-06-22T01:49:15.582Z,10.39
2018-06-22T01:50:42.843Z,10.42
2018-06-22T01:52:11.216Z,10.44
2018-06-22T01:53:37.639Z,10.43
2018-06-22T01:55:06.282Z,10.43
2018-06-22T01:56:33.509Z,10.41
2018-06-22T01:57:59.899Z,10.41
2018-06-22T01:59:27.288Z,10.42
2018-06-22T02:00:54.786Z,10.40
2018-06-22T02:02:22.136Z,10.40
2018-06-22T02:03:49.626Z,10.40
2018-06-22T02:05:17.999Z,10.40
2018-06-22T02:06:44.263Z,10.41
2018-06-22T02:08:11.658Z,10.41
2018-06-22T02:09:39.091Z,10.42
2018-06-22T02:11:07.425Z,10.41
2018-06-22T02:12:34.768Z,10.39
2018-06-22T02:14:01.049Z,10.39
2018-06-22T02:15:28.493Z,10.38
2018-06-22T02:16:56.665Z,10.38
2018-06-22T02:18:23.057Z,10.37
2018-06-22T02:19:50.414Z,10.38
2018-06-22T02:21:17.669Z,10.39
2018-06-22T02:22:45.972Z,10.42
2018-06-22T02:24:12.448Z,10.44
2018-06-22T02:25:40.987Z,10.44
2018-06-22T02:27:08.430Z,10.44
2018-06-22T02:28:34.759Z,10.47
2018-06-22T02:30:02.199Z,10.49
2018-06-22T02:31:29.493Z,10.49
2018-06-22T02:32:56.751Z,10.49
2018-06-22T02:34:25.142Z,10.50
2018-06-22T02:35:51.482Z,10.50
2018-06-22T02:37:19.763Z,10.49
2018-06-22T02:38:46.128Z,10.50
2018-06-22T02:40:13.474Z,10.51
2018-06-22T02:41:40.984Z,10.54
2018-06-22T02:43:09.387Z,10.56
2018-06-22T02:44:36.735Z,10.56
2018-06-22T02:46:04.192Z,10.56
2018-06-22T02:47:30.553Z,10.54
2018-06-22T02:48:58.753Z,10.55
2018-06-22T02:50:26.123Z,10.56
2018-06-22T02:51:53.558Z,10.57
2018-06-22T02:53:20.003Z,10.59
2018-06-22T02:54:47.184Z,10.59
2018-06-22T02:56:15.583Z,10.60
2018-06-22T02:57:43.074Z,10.60
2018-06-22T02:59:10.602Z,10.60
2018-06-22T03:00:37.894Z,10.60
2018-06-22T03:02:05.081Z,10.60
2018-06-22T03:03:31.435Z,10.63
2018-06-22T03:04:58.698Z,10.63
2018-06-22T03:06:27.063Z,10.63
2018-06-22T03:07:53.462Z,10.62
2018-06-22T03:09:21.845Z,10.63
2018-06-22T03:10:48.144Z,10.63
2018-06-22T03:12:15.519Z,10.63
2018-06-22T03:13:42.724Z,10.64
2018-06-22T03:15:10.054Z,10.65
2018-06-22T03:16:37.534Z,10.65
2018-06-22T03:18:04.777Z,10.66
2018-06-22T03:19:33.371Z,10.66
2018-06-22T03:20:59.825Z,10.66
2018-06-22T03:22:28.239Z,10.66
2018-06-22T03:23:55.577Z,10.67
2018-06-22T03:25:23.007Z,10.67
2018-06-22T03:26:49.165Z,10.68
2018-06-22T03:28:17.552Z,10.68
2018-06-22T03:29:43.817Z,10.68
2018-06-22T03:31:11.283Z,10.68
2018-06-22T03:32:39.736Z,10.69
2018-06-22T03:34:06.275Z,10.70
2018-06-22T03:35:34.711Z,10.71
2018-06-22T03:37:02.073Z,10.72
2018-06-22T03:38:28.567Z,10.73
2018-06-22T03:39:56.988Z,10.74
2018-06-22T03:41:23.354Z,10.74
2018-06-22T03:42:50.654Z,10.73
2018-06-22T03:44:18.133Z,10.74
2018-06-22T03:45:45.465Z,10.78
2018-06-22T03:47:12.755Z,10.82
2018-06-22T03:48:41.104Z,10.88
2018-06-22T03:50:07.447Z,10.92
2018-06-22T03:51:35.850Z,10.97
2018-06-22T03:53:02.174Z,11.05
2018-06-22T03:54:29.362Z,11.14
2018-06-22T03:55:56.759Z,11.25
2018-06-22T03:57:25.017Z,11.43
2018-06-22T03:58:52.409Z,11.72
2018-06-22T04:00:19.725Z,12.09
2018-06-22T04:01:46.403Z,12.39
2018-06-22T04:03:14.533Z,12.60
2018-06-22T04:04:40.951Z,12.68
2018-06-22T04:06:08.362Z,12.73
2018-06-22T04:07:35.731Z,12.72
2018-06-22T04:09:04.216Z,12.66
2018-06-22T04:10:31.487Z,12.56
2018-06-22T04:11:59.094Z,12.51
2018-06-22T04:13:26.504Z,12.53
2018-06-22T04:14:53.984Z,12.49
2018-06-22T04:16:21.316Z,12.47
2018-06-22T04:17:48.695Z,12.46
2018-06-22T04:19:14.979Z,12.48
2018-06-22T04:20:43.635Z,12.46
2018-06-22T04:22:11.170Z,12.45
2018-06-22T04:23:37.432Z,12.37
2018-06-22T04:25:04.985Z,12.33
2018-06-22T04:26:33.317Z,12.33
2018-06-22T04:27:59.767Z,12.33
2018-06-22T04:29:26.922Z,12.31
2018-06-22T04:30:55.565Z,12.23
2018-06-22T04:32:21.949Z,12.15
2018-06-22T04:33:49.341Z,12.10
2018-06-22T04:35:16.785Z,12.07
2018-06-22T04:36:45.195Z,12.01
2018-06-22T04:38:12.579Z,11.97
2018-06-22T04:39:39.997Z,11.98
2018-06-22T04:41:06.198Z,12.00
2018-06-22T04:42:33.696Z,11.98
2018-06-22T04:44:01.951Z,11.96
2018-06-22T04:45:29.366Z,11.94
2018-06-22T04:46:55.579Z,11.91
2018-06-22T04:48:24.108Z,11.93
2018-06-22T04:49:51.199Z,11.95
2018-06-22T04:51:17.656Z,11.99
2018-06-22T04:52:44.976Z,12.03
2018-06-22T04:54:12.577Z,12.06
2018-06-22T04:55:41.130Z,12.08
2018-06-22T04:57:07.515Z,12.06
2018-06-22T04:58:36.045Z,12.06
2018-06-22T05:00:03.398Z,12.07
2018-06-22T05:01:29.829Z,12.08
2018-06-22T05:02:57.257Z,12.09
2018-06-22T05:04:25.575Z,12.09
2018-06-22T05:05:51.918Z,12.09
2018-06-22T05:07:20.532Z,12.10
2018-06-22T05:08:47.963Z,12.12
2018-06-22T05:10:15.285Z,12.14
2018-06-22T05:11:42.818Z,12.17
2018-06-22T05:13:10.218Z,12.17
2018-06-22T05:14:36.663Z,12.18
2018-06-22T05:16:05.190Z,12.19
2018-06-22T05:17:32.566Z,12.21
2018-06-22T05:18:58.984Z,12.22
2018-06-22T05:20:26.547Z,12.22
2018-06-22T05:21:53.816Z,12.22
2018-06-22T05:23:22.266Z,12.21
2018-06-22T05:24:49.716Z,12.24
2018-06-22T05:26:16.910Z,12.26
2018-06-22T05:27:44.249Z,12.33
2018-06-22T05:29:10.678Z,12.40
2018-06-22T05:30:37.895Z,12.46
2018-06-22T05:32:06.416Z,12.54
2018-06-22T05:33:32.812Z,12.61
2018-06-22T05:35:00.338Z,12.72
2018-06-22T05:36:28.777Z,12.99
2018-06-22T05:37:56.226Z,13.39
2018-06-22T05:39:23.610Z,13.77
2018-06-22T05:40:50.330Z,14.17
2018-06-22T05:42:17.558Z,14.38
2018-06-22T05:43:45.234Z,14.35
2018-06-22T05:45:13.874Z,14.30
2018-06-22T05:46:40.338Z,14.24
2018-06-22T05:48:07.805Z,14.20
2018-06-22T05:49:36.253Z,14.28
2018-06-22T05:51:03.646Z,14.39
2018-06-22T05:52:31.139Z,14.46
2018-06-22T05:53:57.602Z,14.50
2018-06-22T05:55:26.091Z,14.47
2018-06-22T05:56:52.675Z,14.40
2018-06-22T05:58:21.067Z,14.26
2018-06-22T05:59:48.390Z,14.10
2018-06-22T06:01:15.729Z,13.89
2018-06-22T06:02:42.168Z,13.76
2018-06-22T06:04:09.634Z,13.60
2018-06-22T06:05:38.219Z,13.50
2018-06-22T06:07:05.503Z,13.39
2018-06-22T06:08:31.661Z,13.35
2018-06-22T06:09:59.118Z,13.29
2018-06-22T06:11:26.596Z,13.26
2018-06-22T06:12:53.948Z,13.25
2018-06-22T06:14:21.220Z,13.21
2018-06-22T06:15:48.672Z,13.18
2018-06-22T06:17:17.026Z,13.15
2018-06-22T06:18:43.290Z,13.19
2018-06-22T06:20:11.711Z,13.38
2018-06-22T06:21:37.841Z,13.63
2018-06-22T06:23:05.251Z,13.82
2018-06-22T06:24:32.656Z,14.02
2018-06-22T06:26:01.108Z,14.14
2018-06-22T06:27:27.456Z,14.35
2018-06-22T06:28:54.884Z,14.52
2018-06-22T06:30:22.444Z,14.68
2018-06-22T06:31:49.730Z,14.76
2018-06-22T06:33:18.081Z,14.77
2018-06-22T06:34:45.472Z,14.74
2018-06-22T06:36:11.954Z,14.65
2018-06-22T06:37:39.320Z,14.60
2018-06-22T06:39:06.897Z,14.52
2018-06-22T06:40:35.166Z,14.45
2018-06-22T06:42:02.495Z,14.40
2018-06-22T06:43:29.844Z,14.35
2018-06-22T06:44:56.493Z,14.35
2018-06-22T06:46:23.711Z,14.29
2018-06-22T06:47:51.098Z,14.24
2018-06-22T06:49:18.447Z,14.14
2018-06-22T06:50:47.079Z,14.11
2018-06-22T06:52:13.265Z,14.23
2018-06-22T06:53:40.702Z,14.35
2018-06-22T06:55:08.260Z,14.53
2018-06-22T06:56:36.612Z,14.71
2018-06-22T06:58:02.915Z,14.88
2018-06-22T06:59:31.415Z,15.03
2018-06-22T07:00:59.009Z,15.21
2018-06-22T07:02:25.405Z,15.33
2018-06-22T07:03:52.888Z,15.43
2018-06-22T07:05:20.284Z,15.45
2018-06-22T07:06:48.814Z,15.39
2018-06-22T07:08:15.063Z,15.31
2018-06-22T07:09:42.715Z,15.24
2018-06-22T07:11:10.114Z,15.22
2018-06-22T07:12:37.453Z,15.15
2018-06-22T07:14:06.017Z,15.09
2018-06-22T07:15:32.389Z,15.03
2018-06-22T07:17:00.645Z,15.01
2018-06-22T07:18:27.122Z,14.98
2018-06-22T07:19:54.380Z,14.93
2018-06-22T07:21:21.724Z,14.85
2018-06-22T07:22:50.134Z,14.88
2018-06-22T07:24:16.351Z,14.95
2018-06-22T07:25:44.919Z,15.08
2018-06-22T07:27:11.311Z,15.20
2018-06-22T07:28:39.950Z,15.34
2018-06-22T07:30:07.202Z,15.45
2018-06-22T07:31:33.615Z,15.56
2018-06-22T07:33:02.168Z,15.65
2018-06-22T07:34:29.610Z,15.76
2018-06-22T07:35:57.065Z,15.90
2018-06-22T07:37:23.038Z,16.05
2018-06-22T07:38:51.613Z,16.23
2018-06-22T07:40:18.750Z,16.31
2018-06-22T07:41:45.079Z,16.31
2018-06-22T07:43:12.559Z,16.24
2018-06-22T07:44:39.993Z,16.11
2018-06-22T07:46:07.411Z,15.99
2018-06-22T07:47:34.884Z,15.89
2018-06-22T07:49:02.999Z,15.81
2018-06-22T07:50:29.258Z,15.77
2018-06-22T07:51:56.713Z,15.77
2018-06-22T07:53:25.252Z,15.70
2018-06-22T07:54:52.583Z,15.71
2018-06-22T07:56:19.879Z,15.69
2018-06-22T07:57:47.429Z,15.65
2018-06-22T07:59:13.636Z,15.60
2018-06-22T08:00:42.155Z,15.62
2018-06-22T08:02:08.463Z,15.68
2018-06-22T08:03:37.000Z,15.76
2018-06-22T08:05:04.409Z,15.81
2018-06-22T08:06:30.832Z,15.89
2018-06-22T08:07:58.313Z,15.99
2018-06-22T08:09:26.911Z,16.08
2018-06-22T08:10:53.193Z,16.15
2018-06-22T08:12:21.819Z,16.16
2018-06-22T08:13:48.193Z,16.16
2018-06-22T08:15:15.201Z,16.20
2018-06-22T08:16:42.600Z,16.26
2018-06-22T08:18:10.195Z,16.31
2018-06-22T08:19:37.748Z,16.39
2018-06-22T08:21:06.085Z,16.50
2018-06-22T08:22:33.529Z,16.64
2018-06-22T08:24:01.133Z,16.69
2018-06-22T08:25:27.329Z,16.60
2018-06-22T08:26:54.796Z,16.46
2018-06-22T08:28:25.411Z,16.39
2018-06-22T08:29:49.516Z,16.34
2018-06-22T08:31:17.938Z,16.35
2018-06-22T08:32:43.532Z,16.42
2018-06-22T08:34:11.038Z,16.53
2018-06-22T08:35:39.364Z,16.55
2018-06-22T08:37:06.719Z,16.47
2018-06-22T08:38:33.458Z,16.39
2018-06-22T08:39:59.892Z,16.28
2018-06-22T08:41:27.362Z,16.27
2018-06-22T08:42:54.667Z,16.31
2018-06-22T08:44:22.131Z,16.40
2018-06-22T08:45:50.672Z,16.51
2018-06-22T08:47:18.093Z,16.59
2018-06-22T08:48:45.320Z,16.67
2018-06-22T08:50:10.901Z,16.78
2018-06-22T08:51:39.368Z,16.89
2018-06-22T08:53:05.938Z,17.00
2018-06-22T08:54:33.428Z,17.09
2018-06-22T08:56:01.892Z,17.14
2018-06-22T08:57:27.584Z,17.19
2018-06-22T08:58:54.980Z,17.26
2018-06-22T09:00:22.564Z,17.36
2018-06-22T09:01:48.918Z,17.45
2018-06-22T09:03:17.320Z,17.57
2018-06-22T09:04:43.811Z,17.58
2018-06-22T09:06:11.082Z,17.53
2018-06-22T09:07:39.575Z,17.51
2018-06-22T09:09:05.719Z,17.52
2018-06-22T09:10:32.730Z,17.54
2018-06-22T09:12:00.192Z,17.62
2018-06-22T09:13:28.680Z,17.64
2018-06-22T09:14:54.901Z,17.56
2018-06-22T09:16:23.221Z,17.43
2018-06-22T09:17:50.690Z,17.28
2018-06-22T09:19:17.113Z,17.13
2018-06-22T09:20:44.494Z,17.06
2018-06-22T09:22:11.609Z,17.07
2018-06-22T09:23:39.140Z,17.17
2018-06-22T09:25:06.798Z,17.27
2018-06-22T09:26:32.267Z,17.33
2018-06-22T09:28:00.689Z,17.32
2018-06-22T09:29:28.180Z,17.27
2018-06-22T09:30:55.564Z,17.20
2018-06-22T09:33:49.460Z,17.27
2018-06-22T09:35:16.794Z,17.36
2018-06-22T09:36:45.181Z,17.44
2018-06-22T09:38:11.693Z,17.54
2018-06-22T09:39:40.267Z,17.62
2018-06-22T09:41:06.788Z,17.73
2018-06-22T09:42:34.699Z,17.83
2018-06-22T09:44:00.937Z,17.92
2018-06-22T09:45:29.620Z,18.01
2018-06-22T09:46:57.018Z,18.04
2018-06-22T09:48:23.402Z,18.11
2018-06-22T09:49:50.803Z,18.21
2018-06-22T09:51:19.194Z,18.28
2018-06-22T09:52:46.686Z,18.35
2018-06-22T09:54:14.064Z,18.39
2018-06-22T09:55:40.395Z,18.33
2018-06-22T09:57:07.958Z,18.23
2018-06-22T09:58:35.040Z,18.07
2018-06-22T10:00:03.494Z,17.91
2018-06-22T10:01:29.763Z,17.84
2018-06-22T10:02:58.378Z,17.84
2018-06-22T10:04:25.757Z,17.91
2018-06-22T10:05:53.105Z,18.00
2018-06-22T10:07:20.557Z,18.08
2018-06-22T10:08:46.736Z,18.08
2018-06-22T10:10:13.931Z,18.02
2018-06-22T10:11:42.606Z,17.98
2018-06-22T10:13:09.109Z,17.95
2018-06-22T10:14:37.372Z,17.96
2018-06-22T10:16:04.757Z,18.00
2018-06-22T10:17:31.201Z,18.05
2018-06-22T10:18:58.479Z,18.13
2018-06-22T10:20:25.550Z,18.26
2018-06-22T10:21:52.906Z,18.41
2018-06-22T10:23:20.482Z,18.49
2018-06-22T10:24:47.664Z,18.56
2018-06-22T10:26:15.120Z,18.61
2018-06-22T10:27:42.549Z,18.68
2018-06-22T10:29:10.950Z,18.76
2018-06-22T10:30:38.305Z,18.85
2018-06-22T10:32:04.823Z,18.90
2018-06-22T10:33:31.611Z,18.98
2018-06-22T10:34:59.139Z,19.06
2018-06-22T10:36:26.502Z,19.15
2018-06-22T10:37:53.954Z,19.22
2018-06-22T10:39:22.141Z,19.28
2018-06-22T10:40:49.516Z,19.31
2018-06-22T10:42:15.991Z,19.34
2018-06-22T10:43:43.355Z,19.36
2018-06-22T10:45:10.894Z,19.32
2018-06-22T10:46:38.171Z,19.29
2018-06-22T10:48:06.656Z,19.27
2018-06-22T10:49:32.918Z,19.32
2018-06-22T10:51:00.468Z,19.42
2018-06-22T10:52:28.130Z,19.54
2018-06-22T10:53:55.572Z,19.66
2018-06-22T10:55:23.966Z,19.92
2018-06-22T10:56:50.584Z,20.27
2018-06-22T10:58:19.237Z,20.59
2018-06-22T10:59:45.861Z,20.71
2018-06-22T11:01:14.135Z,20.73
2018-06-22T11:02:40.590Z,20.69
2018-06-22T11:04:08.462Z,20.64
2018-06-22T11:05:34.867Z,20.79
2018-06-22T11:07:03.102Z,20.98
2018-06-22T11:08:29.844Z,21.18
2018-06-22T11:09:57.318Z,21.38
2018-06-22T11:11:25.270Z,21.63
2018-06-22T11:12:51.662Z,21.83
2018-06-22T11:14:20.403Z,22.01
2018-06-22T11:15:46.515Z,22.03
2018-06-22T11:17:13.761Z,22.09
2018-06-22T11:18:42.320Z,22.25
2018-06-22T11:20:08.134Z,22.39
2018-06-22T11:21:35.499Z,22.50
2018-06-22T11:23:03.107Z,22.68
2018-06-22T11:24:30.860Z,22.76
2018-06-22T11:25:58.383Z,22.75
2018-06-22T11:27:25.836Z,22.43
2018-06-22T11:28:59.593Z,22.23
2018-06-22T11:30:20.985Z,22.10
2018-06-22T11:31:48.638Z,22.18
2018-06-22T11:33:15.862Z,22.31
2018-06-22T11:34:43.174Z,22.58
2018-06-22T11:36:11.975Z,22.88
2018-06-22T11:37:37.986Z,23.03
2018-06-22T11:39:06.223Z,23.10
2018-06-22T11:40:32.857Z,23.23
2018-06-22T11:42:00.430Z,23.49
2018-06-22T11:43:28.814Z,23.63
2018-06-22T11:44:55.980Z,23.66
2018-06-22T11:46:23.582Z,23.66
2018-06-22T11:47:50.159Z,23.47
2018-06-22T11:49:18.711Z,23.26
2018-06-22T11:50:44.395Z,23.07
2018-06-22T11:52:12.249Z,22.83
2018-06-22T11:53:38.450Z,22.58
2018-06-22T11:55:05.621Z,22.56
2018-06-22T11:56:32.932Z,22.62
2018-06-22T11:57:59.751Z,22.73
2018-06-22T11:59:27.295Z,22.65
2018-06-22T12:00:54.377Z,22.47
2018-06-22T12:02:22.936Z,22.24
2018-06-22T12:03:49.438Z,22.12
2018-06-22T12:05:17.845Z,22.19
2018-06-22T12:06:44.178Z,22.24
2018-06-22T12:08:11.683Z,22.40
2018-06-22T12:09:39.154Z,22.63
2018-06-22T12:11:06.660Z,22.81
2018-06-22T12:12:34.216Z,22.88
2018-06-22T12:14:01.565Z,22.93
2018-06-22T12:15:29.195Z,23.13
2018-06-22T12:16:57.302Z,23.15
2018-06-22T12:18:23.376Z,23.06
2018-06-22T12:19:50.873Z,22.77
2018-06-22T12:21:19.007Z,22.62
2018-06-22T12:22:45.239Z,22.69
2018-06-22T12:24:13.681Z,22.81
2018-06-22T12:25:41.302Z,22.91
2018-06-22T12:27:07.527Z,23.02
2018-06-22T12:28:36.256Z,23.05
2018-06-22T12:30:02.626Z,22.96
2018-06-22T12:31:30.018Z,22.85
2018-06-22T12:32:57.202Z,22.65
2018-06-22T12:34:25.233Z,22.32
2018-06-22T12:35:50.982Z,22.07
2018-06-22T12:37:18.621Z,22.12
2018-06-22T12:38:46.073Z,22.24
2018-06-22T12:40:13.558Z,22.31
2018-06-22T12:41:40.573Z,22.23
2018-06-22T12:43:08.069Z,22.30
2018-06-22T12:44:35.751Z,22.32
2018-06-22T12:46:04.323Z,22.23
2018-06-22T12:47:30.926Z,21.90
2018-06-22T12:48:57.564Z,21.65
2018-06-22T12:50:24.998Z,21.56
2018-06-22T12:51:53.334Z,21.74
2018-06-22T12:53:19.823Z,21.96
2018-06-22T12:54:48.198Z,22.11
2018-06-22T12:56:14.865Z,22.28
2018-06-22T12:57:42.461Z,22.42
2018-06-22T12:59:10.004Z,22.44
2018-06-22T13:00:37.650Z,22.28
2018-06-22T13:02:05.260Z,22.11
2018-06-22T13:03:32.889Z,22.07
2018-06-22T13:05:00.358Z,21.98
2018-06-22T13:06:28.876Z,21.86
2018-06-22T13:07:54.822Z,21.77
2018-06-22T13:09:23.473Z,21.64
2018-06-22T13:10:49.871Z,21.52
2018-06-22T13:12:16.638Z,21.34
2018-06-22T13:13:44.061Z,21.30
2018-06-22T13:15:11.511Z,21.17
2018-06-22T13:16:40.107Z,20.99
2018-06-22T13:18:06.421Z,20.93
2018-06-22T13:19:33.576Z,20.74
2018-06-22T13:21:01.331Z,20.63
2018-06-22T13:22:28.371Z,20.53
2018-06-22T13:23:56.725Z,20.44
2018-06-22T13:25:22.806Z,20.43
2018-06-22T13:26:51.507Z,20.50
2018-06-22T13:28:17.798Z,20.62
2018-06-22T13:29:45.424Z,20.73
2018-06-22T13:31:13.990Z,20.78
2018-06-22T13:32:39.796Z,20.78
2018-06-22T13:34:07.915Z,20.71
2018-06-22T13:35:35.166Z,20.71
2018-06-22T13:37:00.979Z,20.69
2018-06-22T13:38:28.516Z,20.67
2018-06-22T13:39:55.893Z,20.66
2018-06-22T13:41:22.959Z,20.63
2018-06-22T13:42:49.841Z,20.61
2018-06-22T13:44:18.465Z,20.62
2018-06-22T13:45:45.808Z,20.65
2018-06-22T13:47:12.181Z,20.64
2018-06-22T13:48:40.806Z,20.57
2018-06-22T13:50:08.492Z,20.53
2018-06-22T13:51:34.292Z,20.49
2018-06-22T13:53:02.480Z,20.48
2018-06-22T13:54:30.233Z,20.50
2018-06-22T13:55:56.566Z,20.51
2018-06-22T13:57:23.829Z,20.48
2018-06-22T13:58:50.917Z,20.52
2018-06-22T14:00:18.345Z,20.51
2018-06-22T14:01:45.988Z,20.54
2018-06-22T14:03:14.220Z,20.50
2018-06-22T14:04:41.592Z,20.45
2018-06-22T14:06:07.948Z,20.42
2018-06-22T14:07:35.551Z,20.41
2018-06-22T14:09:04.126Z,20.44
2018-06-22T14:10:31.458Z,20.47
2018-06-22T14:11:58.869Z,20.45
2018-06-22T14:13:25.258Z,20.43
2018-06-22T14:14:53.212Z,20.45
2018-06-22T14:16:19.593Z,20.46
2018-06-22T14:17:47.689Z,20.43
2018-06-22T14:19:14.970Z,20.39
2018-06-22T14:20:41.893Z,20.39
2018-06-22T14:22:08.391Z,20.42
2018-06-22T14:23:36.013Z,20.47
2018-06-22T14:25:03.500Z,20.54
2018-06-22T14:26:30.942Z,20.60
2018-06-22T14:27:58.465Z,20.67
2018-06-22T14:29:27.060Z,20.73
2018-06-22T14:30:53.430Z,20.81
2018-06-22T14:32:21.959Z,20.88
2018-06-22T14:33:49.443Z,20.93
2018-06-22T14:35:15.719Z,20.91
2018-06-22T14:36:43.179Z,20.86
2018-06-22T14:38:13.531Z,20.77
2018-06-22T14:39:37.884Z,20.67
2018-06-22T14:41:05.490Z,20.57
2018-06-22T14:42:34.088Z,20.49
2018-06-22T14:44:00.498Z,20.37
2018-06-22T14:45:28.638Z,20.23
2018-06-22T14:46:56.138Z,20.15
2018-06-22T14:48:22.440Z,20.00
2018-06-22T14:49:50.955Z,19.91
2018-06-22T14:51:18.257Z,19.86
2018-06-22T14:52:45.629Z,19.89
2018-06-22T14:54:12.054Z,19.84
2018-06-22T14:55:39.561Z,19.78
2018-06-22T14:57:08.226Z,19.73
2018-06-22T14:58:34.213Z,19.72
2018-06-22T15:00:01.431Z,19.74
2018-06-22T15:01:28.725Z,19.71
2018-06-22T15:02:55.942Z,19.67
2018-06-22T15:04:23.194Z,19.64
2018-06-22T15:05:50.638Z,19.66
2018-06-22T15:07:18.200Z,19.69
2018-06-22T15:08:45.653Z,19.78
2018-06-22T15:10:13.948Z,19.85
2018-06-22T15:11:40.728Z,19.88
2018-06-22T15:13:07.200Z,19.92
2018-06-22T15:14:34.647Z,19.90
2018-06-22T15:16:02.237Z,19.88
2018-06-22T15:17:29.692Z,19.83
2018-06-22T15:18:57.163Z,19.87
2018-06-22T15:20:25.772Z,19.92
2018-06-22T15:21:51.702Z,19.98
2018-06-22T15:23:19.280Z,20.01
2018-06-22T15:24:47.757Z,20.05
2018-06-22T15:26:13.840Z,20.10
2018-06-22T15:27:41.513Z,20.09
2018-06-22T15:29:08.915Z,20.00
2018-06-22T15:30:37.188Z,19.95
2018-06-22T15:32:03.659Z,19.86
2018-06-22T15:33:31.171Z,19.78
2018-06-22T15:34:58.766Z,19.75
2018-06-22T15:36:26.199Z,19.72
2018-06-22T15:37:53.783Z,19.68
2018-06-22T15:39:21.308Z,19.54
2018-06-22T15:40:48.854Z,19.43
2018-06-22T15:42:16.254Z,19.34
2018-06-22T15:43:43.899Z,19.29
2018-06-22T15:45:11.461Z,19.16
2018-06-22T15:46:39.644Z,19.13
2018-06-22T15:48:05.987Z,19.03
2018-06-22T15:49:33.611Z,18.94
2018-06-22T15:51:00.987Z,18.86
2018-06-22T15:52:29.757Z,18.71
2018-06-22T15:53:57.282Z,18.61
2018-06-22T15:55:23.749Z,18.56
2018-06-22T15:56:51.643Z,18.49
2018-06-22T15:58:18.551Z,18.48
2018-06-22T15:59:45.033Z,18.43
2018-06-22T16:01:13.569Z,18.40
2018-06-22T16:02:39.974Z,18.33
2018-06-22T16:04:06.938Z,18.31
2018-06-22T16:05:35.438Z,18.31
2018-06-22T16:07:02.750Z,18.31
2018-06-22T16:08:29.396Z,18.30
2018-06-22T16:09:56.631Z,18.29
2018-06-22T16:11:24.333Z,18.19
2018-06-22T16:12:51.863Z,18.16
2018-06-22T16:14:20.424Z,18.11
2018-06-22T16:15:46.773Z,18.10
2018-06-22T16:17:13.476Z,18.08
2018-06-22T16:18:41.148Z,18.11
2018-06-22T16:20:08.030Z,18.09
2018-06-22T16:21:36.460Z,18.05
2018-06-22T16:23:02.998Z,18.06
2018-06-22T16:24:29.347Z,18.05
2018-06-22T16:25:56.868Z,18.09
2018-06-22T16:27:24.927Z,18.10
2018-06-22T16:28:54.243Z,18.12
2018-06-22T16:30:17.773Z,18.07
2018-06-22T16:31:45.200Z,18.04
2018-06-22T16:33:11.742Z,18.04
2018-06-22T16:34:38.969Z,18.02
2018-06-22T16:36:07.750Z,17.97
2018-06-22T16:37:34.036Z,17.94
2018-06-22T16:39:01.550Z,17.94
2018-06-22T16:40:28.885Z,17.87
2018-06-22T16:41:56.464Z,17.82
2018-06-22T16:43:24.012Z,17.77
2018-06-22T16:44:50.226Z,17.76
2018-06-22T16:46:18.259Z,17.70
2018-06-22T16:47:45.773Z,17.67
2018-06-22T16:49:11.837Z,17.68
2018-06-22T16:50:38.568Z,17.69
2018-06-22T16:52:06.042Z,17.68
2018-06-22T16:53:33.539Z,17.70
2018-06-22T16:55:01.991Z,17.67
2018-06-22T16:56:27.930Z,17.62
2018-06-22T16:57:54.907Z,17.61
2018-06-22T16:59:22.245Z,17.53
2018-06-22T17:00:49.809Z,17.47
2018-06-22T17:02:17.045Z,17.47
2018-06-22T17:03:44.372Z,17.46
2018-06-22T17:05:12.749Z,17.47
2018-06-22T17:06:38.499Z,17.44
2018-06-22T17:08:06.991Z,17.38
2018-06-22T17:09:33.516Z,17.36
2018-06-22T17:11:01.373Z,17.36
2018-06-22T17:12:27.791Z,17.36
2018-06-22T17:13:55.395Z,17.33
2018-06-22T17:15:22.728Z,17.29
2018-06-22T17:16:51.192Z,17.27
2018-06-22T17:18:17.302Z,17.24
2018-06-22T17:19:45.473Z,17.25
2018-06-22T17:21:10.774Z,17.26
2018-06-22T17:22:38.118Z,17.30
2018-06-22T17:24:05.712Z,17.31
2018-06-22T17:25:33.077Z,17.33
2018-06-22T17:27:00.503Z,17.37
2018-06-22T17:28:27.389Z,17.36
2018-06-22T17:29:54.108Z,17.34
2018-06-22T17:31:21.300Z,17.33
2018-06-22T17:32:47.899Z,17.28
2018-06-22T17:34:15.226Z,17.17
2018-06-22T17:35:42.718Z,17.09
2018-06-22T17:37:10.038Z,17.01
2018-06-22T17:38:38.593Z,16.91
2018-06-22T17:40:05.936Z,16.83
2018-06-22T17:41:31.621Z,16.81
2018-06-22T17:42:59.543Z,16.81
2018-06-22T17:44:26.050Z,16.82
2018-06-22T17:45:53.149Z,16.81
2018-06-22T17:47:20.125Z,16.77
2018-06-22T17:48:47.578Z,16.72
2018-06-22T17:50:14.555Z,16.69
2018-06-22T17:51:43.149Z,16.70
2018-06-22T17:53:09.633Z,16.72
2018-06-22T17:54:37.176Z,16.72
2018-06-22T17:56:03.842Z,16.70
2018-06-22T17:57:31.479Z,16.68
2018-06-22T17:58:58.012Z,16.67
2018-06-22T18:00:25.838Z,16.64
2018-06-22T18:01:53.186Z,16.60
2018-06-22T18:03:20.450Z,16.56
2018-06-22T18:04:46.812Z,16.56
2018-06-22T18:06:14.629Z,16.53
2018-06-22T18:07:40.899Z,16.51
2018-06-22T18:09:08.438Z,16.44
2018-06-22T18:10:35.786Z,16.42
2018-06-22T18:12:04.359Z,16.38
2018-06-22T18:13:30.590Z,16.34
2018-06-22T18:14:58.007Z,16.31
2018-06-22T18:16:25.023Z,16.29
2018-06-22T18:17:52.487Z,16.28
2018-06-22T18:19:20.326Z,16.28
2018-06-22T18:20:46.831Z,16.27
2018-06-22T18:22:15.297Z,16.30
2018-06-22T18:23:41.764Z,16.29
2018-06-22T18:25:09.154Z,16.28
2018-06-22T18:26:36.605Z,16.26
2018-06-22T18:28:05.123Z,16.25
2018-06-22T18:29:31.582Z,16.25
2018-06-22T18:30:59.496Z,16.21
2018-06-22T18:32:25.138Z,16.19
2018-06-22T18:33:53.540Z,16.18
2018-06-22T18:35:19.886Z,16.16
2018-06-22T18:36:48.313Z,16.12
2018-06-22T18:38:14.717Z,16.09
2018-06-22T18:39:43.307Z,16.05
2018-06-22T18:41:10.629Z,16.02
2018-06-22T18:42:37.387Z,15.98
2018-06-22T18:44:03.711Z,15.98
2018-06-22T18:45:32.205Z,15.99